Time;durP1;ratioP1;P1;durP2;ratioP2;P2;SDS_P1;SDS_P2;PMS_P1;PMS_P2;Temp;Humidity;BMP_temperature;BMP_pressure;BME280_temperature;BME280_humidity;BME280_pressure;Samples;Min_cycle;Max_cycle;Signal;HPM_P1;HPM_P2
2021/08/18 00:02:06;;;;;;;24.98;10.90;;;;;;;;;;4823746;29;20065;-68
2021/08/18 00:04:33;;;;;;;21.58;11.57;;;;;;;;;;4823511;29;20081;-68
2021/08/18 00:07:00;;;;;;;22.92;12.23;;;;;;;;;;4825260;29;20100;-68
2021/08/18 00:09:26;;;;;;;20.65;11.88;;;;;;;;;;4841627;29;20144;-67
2021/08/18 00:11:53;;;;;;;20.73;11.63;;;;;;;;;;4841868;29;20085;-67
2021/08/18 00:14:19;;;;;;;25.05;11.27;;;;;;;;;;4841775;29;20269;-67
2021/08/18 00:16:46;;;;;;;22.35;10.82;;;;;;;;;;4841731;29;20485;-67
2021/08/18 00:19:13;;;;;;;19.20;11.48;;;;;;;;;;4841211;29;20077;-67
2021/08/18 00:21:39;;;;;;;21.30;10.75;;;;;;;;;;4841362;29;20553;-67
2021/08/18 00:24:06;;;;;;;18.85;10.55;;;;;;;;;;4841543;29;20058;-67
2021/08/18 00:26:33;;;;;;;18.45;10.98;;;;;;;;;;4841765;29;20114;-68
2021/08/18 00:28:59;;;;;;;20.90;11.30;;;;;;;;;;4841466;29;20093;-68
2021/08/18 00:31:27;;;;;;;22.45;11.20;;;;;;;;;;4840125;29;20507;-67
2021/08/18 00:33:53;;;;;;;19.83;10.88;;;;;;;;;;4822873;29;20479;-67
2021/08/18 00:36:20;;;;;;;18.55;10.98;;;;;;;;;;4822818;29;20564;-67
2021/08/18 00:38:46;;;;;;;22.55;11.45;;;;;;;;;;4823064;29;20571;-67
2021/08/18 00:41:13;;;;;;;18.50;10.68;;;;;;;;;;4823249;29;20480;-67
2021/08/18 00:43:40;;;;;;;17.80;10.68;;;;;;;;;;4825426;29;20097;-68
2021/08/18 00:46:07;;;;;;;18.52;10.20;;;;;;;;;;4824025;29;20129;-67
2021/08/18 00:48:34;;;;;;;21.90;10.63;;;;;;;;;;4821807;29;20054;-67
2021/08/18 00:51:01;;;;;;;21.13;10.77;;;;;;;;;;4823087;29;20058;-68
2021/08/18 00:53:27;;;;;;;21.45;11.77;;;;;;;;;;4832013;29;20446;-68
2021/08/18 00:55:55;;;;;;;19.73;11.15;;;;;;;;;;4841261;29;20077;-67
2021/08/18 00:58:22;;;;;;;20.25;10.43;;;;;;;;;;4841008;29;20054;-68
2021/08/18 01:00:48;;;;;;;19.90;10.65;;;;;;;;;;4839916;29;20053;-68
2021/08/18 01:03:15;;;;;;;20.60;11.07;;;;;;;;;;4840387;29;20483;-68
2021/08/18 01:05:42;;;;;;;23.10;10.52;;;;;;;;;;4840986;29;20064;-68
2021/08/18 01:08:08;;;;;;;18.95;11.25;;;;;;;;;;4840962;29;20096;-68
2021/08/18 01:10:35;;;;;;;18.45;10.07;;;;;;;;;;4840979;29;20089;-68
2021/08/18 01:13:03;;;;;;;24.30;11.68;;;;;;;;;;4841482;29;20064;-67
2021/08/18 01:15:31;;;;;;;16.63;9.57;;;;;;;;;;4839657;29;20508;-67
2021/08/18 01:17:59;;;;;;;19.33;10.05;;;;;;;;;;4840775;29;20049;-67
2021/08/18 01:20:32;;;;;;;19.38;10.63;;;;;;;;;;4840905;29;20081;-67
2021/08/18 01:23:00;;;;;;;18.75;9.52;;;;;;;;;;4841247;29;20108;-67
2021/08/18 01:25:26;;;;;;;15.60;9.60;;;;;;;;;;4840138;29;20107;-67
2021/08/18 01:27:55;;;;;;;21.10;10.90;;;;;;;;;;4840587;29;20089;-67
2021/08/18 01:30:23;;;;;;;19.67;10.50;;;;;;;;;;4841152;29;20081;-66
2021/08/18 01:33:00;;;;;;;20.42;10.32;;;;;;;;;;4840747;29;20089;-67
2021/08/18 01:35:32;;;;;;;20.50;11.20;;;;;;;;;;4854697;29;20085;-67
2021/08/18 01:38:03;;;;;;;23.05;11.02;;;;;;;;;;4840710;29;20478;-67
2021/08/18 01:40:30;;;;;;;18.00;10.00;;;;;;;;;;4840903;29;20493;-67
2021/08/18 01:42:57;;;;;;;17.88;10.07;;;;;;;;;;4840701;29;20058;-67
2021/08/18 01:45:29;;;;;;;16.38;9.80;;;;;;;;;;4840797;29;20054;-67
2021/08/18 01:47:56;;;;;;;16.15;10.35;;;;;;;;;;4827987;29;20093;-67
2021/08/18 01:50:23;;;;;;;20.55;10.70;;;;;;;;;;4826060;29;20089;-67
2021/08/18 01:52:51;;;;;;;16.48;10.05;;;;;;;;;;4825754;29;20054;-68
2021/08/18 01:55:20;;;;;;;16.65;10.00;;;;;;;;;;4825794;29;20055;-67
2021/08/18 01:57:47;;;;;;;19.67;10.07;;;;;;;;;;4825864;29;20050;-67
2021/08/18 02:00:15;;;;;;;21.80;11.38;;;;;;;;;;4825549;29;20081;-67
2021/08/18 02:02:42;;;;;;;17.83;9.93;;;;;;;;;;4839259;29;20503;-67
2021/08/18 02:05:09;;;;;;;17.30;10.75;;;;;;;;;;4825718;29;20061;-67
2021/08/18 02:07:36;;;;;;;16.27;9.98;;;;;;;;;;4835239;29;20086;-67
2021/08/18 02:10:05;;;;;;;16.35;9.95;;;;;;;;;;4844032;29;20081;-67
2021/08/18 02:12:33;;;;;;;21.48;10.80;;;;;;;;;;4843457;29;20073;-67
2021/08/18 02:15:00;;;;;;;16.83;10.50;;;;;;;;;;4843778;29;20078;-67
2021/08/18 02:17:26;;;;;;;18.48;10.68;;;;;;;;;;4834505;29;20086;-67
2021/08/18 02:19:53;;;;;;;18.55;10.57;;;;;;;;;;4825371;29;20107;-67
2021/08/18 02:22:19;;;;;;;17.10;10.75;;;;;;;;;;4825138;29;20089;-67
2021/08/18 02:24:46;;;;;;;18.13;9.75;;;;;;;;;;4825427;29;20058;-67
2021/08/18 02:27:12;;;;;;;15.50;8.88;;;;;;;;;;4825398;29;20447;-67
2021/08/18 02:29:39;;;;;;;18.33;10.18;;;;;;;;;;4825107;29;20105;-67
2021/08/18 02:32:06;;;;;;;18.40;9.80;;;;;;;;;;4825113;29;20092;-67
2021/08/18 02:34:32;;;;;;;14.75;9.48;;;;;;;;;;4824980;29;20082;-67
2021/08/18 02:36:59;;;;;;;16.65;8.95;;;;;;;;;;4825275;29;20082;-67
2021/08/18 02:39:25;;;;;;;16.05;9.35;;;;;;;;;;4824787;29;20078;-67
2021/08/18 02:41:52;;;;;;;15.77;8.48;;;;;;;;;;4824984;29;20471;-67
2021/08/18 02:44:18;;;;;;;15.10;8.85;;;;;;;;;;4824948;29;20532;-67
2021/08/18 02:46:45;;;;;;;13.77;9.27;;;;;;;;;;4824975;29;20093;-67
2021/08/18 02:49:11;;;;;;;16.55;9.68;;;;;;;;;;4824784;29;20482;-67
2021/08/18 02:51:38;;;;;;;18.00;8.57;;;;;;;;;;4824756;29;20222;-67
2021/08/18 02:54:04;;;;;;;13.88;8.55;;;;;;;;;;4824807;29;20518;-67
2021/08/18 02:56:31;;;;;;;14.85;8.98;;;;;;;;;;4825594;29;20054;-66
2021/08/18 02:58:57;;;;;;;15.63;8.57;;;;;;;;;;4842629;29;20095;-67
2021/08/18 03:01:24;;;;;;;13.35;7.63;;;;;;;;;;4842872;29;20157;-67
2021/08/18 03:03:51;;;;;;;13.98;7.85;;;;;;;;;;4842999;29;20061;-66
2021/08/18 03:06:17;;;;;;;16.35;7.88;;;;;;;;;;4862562;29;20062;-68
2021/08/18 03:08:44;;;;;;;16.88;8.18;;;;;;;;;;4867783;29;20048;-68
2021/08/18 03:11:10;;;;;;;13.10;7.68;;;;;;;;;;4867789;29;20046;-68
2021/08/18 03:13:37;;;;;;;12.10;7.57;;;;;;;;;;4867666;29;20118;-69
2021/08/18 03:16:04;;;;;;;14.48;8.35;;;;;;;;;;4867726;29;20063;-69
2021/08/18 03:18:31;;;;;;;15.30;8.55;;;;;;;;;;4867115;29;20073;-68
2021/08/18 03:20:58;;;;;;;14.27;8.57;;;;;;;;;;4852473;29;20057;-67
2021/08/18 03:23:25;;;;;;;13.95;8.02;;;;;;;;;;4842695;29;20477;-66
2021/08/18 03:25:51;;;;;;;13.23;7.82;;;;;;;;;;4842649;29;20089;-67
2021/08/18 03:28:18;;;;;;;15.95;8.52;;;;;;;;;;4842100;29;20101;-67
2021/08/18 03:30:44;;;;;;;15.27;8.93;;;;;;;;;;4842743;29;20097;-68
2021/08/18 03:33:11;;;;;;;14.30;8.20;;;;;;;;;;4842417;29;20062;-67
2021/08/18 03:35:37;;;;;;;15.95;8.68;;;;;;;;;;4842401;29;20578;-67
2021/08/18 03:38:04;;;;;;;20.45;8.82;;;;;;;;;;4842216;29;20055;-66
2021/08/18 03:40:31;;;;;;;15.57;8.35;;;;;;;;;;4842180;29;20091;-68
2021/08/18 03:42:57;;;;;;;15.05;8.55;;;;;;;;;;4842424;29;20089;-67
2021/08/18 03:45:24;;;;;;;12.02;7.72;;;;;;;;;;4842116;29;20100;-67
2021/08/18 03:47:50;;;;;;;13.75;7.80;;;;;;;;;;4842101;29;20081;-67
2021/08/18 03:50:17;;;;;;;15.18;9.05;;;;;;;;;;4842211;29;20107;-68
2021/08/18 03:52:43;;;;;;;13.48;7.93;;;;;;;;;;4841966;29;20089;-67
2021/08/18 03:55:11;;;;;;;14.90;8.15;;;;;;;;;;4842097;29;20050;-66
2021/08/18 03:57:38;;;;;;;10.10;6.68;;;;;;;;;;4841737;29;20058;-67
2021/08/18 04:00:08;;;;;;;14.15;7.13;;;;;;;;;;4841996;29;20086;-67
2021/08/18 04:02:35;;;;;;;12.65;6.78;;;;;;;;;;4855254;29;20045;-67
2021/08/18 04:05:03;;;;;;;10.25;5.95;;;;;;;;;;4840915;29;20566;-67
2021/08/18 04:07:30;;;;;;;10.05;6.03;;;;;;;;;;4823565;29;20094;-67
2021/08/18 04:09:56;;;;;;;11.40;6.43;;;;;;;;;;4823979;29;20086;-67
2021/08/18 04:12:23;;;;;;;9.75;6.35;;;;;;;;;;4822854;29;20400;-67
2021/08/18 04:14:49;;;;;;;12.88;6.93;;;;;;;;;;4823654;29;20050;-67
2021/08/18 04:17:16;;;;;;;9.90;5.97;;;;;;;;;;4839937;29;20093;-67
2021/08/18 04:19:42;;;;;;;11.85;7.15;;;;;;;;;;4841636;29;20057;-67
2021/08/18 04:22:09;;;;;;;10.60;6.82;;;;;;;;;;4836606;29;20092;-67
2021/08/18 04:24:36;;;;;;;13.73;7.18;;;;;;;;;;4815059;29;20063;-67
2021/08/18 04:27:04;;;;;;;11.05;7.13;;;;;;;;;;4805364;29;20133;-67
2021/08/18 04:29:30;;;;;;;12.10;7.47;;;;;;;;;;4804805;29;20050;-67
2021/08/18 04:31:59;;;;;;;11.05;7.03;;;;;;;;;;4805081;29;20085;-67
2021/08/18 04:34:25;;;;;;;13.90;7.57;;;;;;;;;;4805000;29;20130;-67
2021/08/18 04:36:52;;;;;;;11.25;7.63;;;;;;;;;;4807181;29;20051;-66
2021/08/18 04:39:18;;;;;;;11.73;6.60;;;;;;;;;;4805229;29;20089;-67
2021/08/18 04:41:45;;;;;;;11.48;6.45;;;;;;;;;;4819940;29;20086;-67
2021/08/18 04:44:11;;;;;;;12.95;6.88;;;;;;;;;;4823257;29;20483;-67
2021/08/18 04:46:38;;;;;;;12.98;7.13;;;;;;;;;;4823331;29;20084;-67
2021/08/18 04:49:04;;;;;;;10.10;6.30;;;;;;;;;;4823187;29;20145;-68
2021/08/18 04:51:31;;;;;;;11.63;6.55;;;;;;;;;;4823202;29;20109;-67
2021/08/18 04:53:57;;;;;;;11.07;6.70;;;;;;;;;;4823144;29;20546;-67
2021/08/18 04:56:24;;;;;;;10.20;5.30;;;;;;;;;;4823332;29;20337;-67
2021/08/18 04:58:52;;;;;;;8.65;5.65;;;;;;;;;;4823198;29;20066;-67
2021/08/18 05:01:18;;;;;;;12.05;6.07;;;;;;;;;;4823074;29;20137;-67
2021/08/18 05:03:45;;;;;;;8.32;5.57;;;;;;;;;;4824242;29;20137;-68
2021/08/18 05:06:11;;;;;;;9.52;6.15;;;;;;;;;;4823193;29;20062;-68
2021/08/18 05:08:38;;;;;;;9.88;6.03;;;;;;;;;;4822774;29;20058;-68
2021/08/18 05:11:04;;;;;;;8.77;5.70;;;;;;;;;;4822824;29;20479;-68
2021/08/18 05:13:31;;;;;;;9.10;5.28;;;;;;;;;;4822399;29;20122;-68
2021/08/18 05:15:58;;;;;;;10.05;5.10;;;;;;;;;;4822888;29;20058;-68
2021/08/18 05:18:25;;;;;;;9.77;5.22;;;;;;;;;;4822619;29;20163;-68
2021/08/18 05:20:51;;;;;;;8.50;4.82;;;;;;;;;;4822860;29;20093;-68
2021/08/18 05:23:18;;;;;;;7.45;4.60;;;;;;;;;;4825330;29;20104;-68
2021/08/18 05:25:44;;;;;;;7.57;5.10;;;;;;;;;;4826497;29;20058;-67
2021/08/18 05:28:13;;;;;;;7.80;5.50;;;;;;;;;;4837012;29;20058;-67
2021/08/18 05:30:40;;;;;;;6.32;4.50;;;;;;;;;;4830483;29;20087;-68
2021/08/18 05:33:07;;;;;;;6.88;4.63;;;;;;;;;;4824370;29;20055;-70
2021/08/18 05:35:33;;;;;;;9.00;5.65;;;;;;;;;;4825997;29;20082;-68
2021/08/18 05:38:00;;;;;;;8.07;4.30;;;;;;;;;;4825913;29;20059;-73
2021/08/18 05:40:26;;;;;;;8.75;5.75;;;;;;;;;;4825969;29;20066;-72
2021/08/18 05:42:54;;;;;;;8.18;5.03;;;;;;;;;;4825749;29;20449;-72
2021/08/18 05:45:21;;;;;;;9.32;4.95;;;;;;;;;;4825822;29;20187;-72
2021/08/18 05:47:47;;;;;;;11.88;5.25;;;;;;;;;;4825615;29;20060;-70
2021/08/18 05:50:14;;;;;;;8.35;4.68;;;;;;;;;;4825841;29;20054;-72
2021/08/18 05:52:41;;;;;;;9.00;5.25;;;;;;;;;;4825524;29;20055;-71
2021/08/18 05:55:08;;;;;;;10.13;5.93;;;;;;;;;;4825649;29;20495;-71
2021/08/18 05:57:35;;;;;;;8.23;5.13;;;;;;;;;;4825146;29;20054;-71
2021/08/18 06:00:03;;;;;;;9.05;5.22;;;;;;;;;;4825691;29;20054;-70
2021/08/18 06:02:30;;;;;;;10.00;5.95;;;;;;;;;;4837757;29;20418;-71
2021/08/18 06:04:57;;;;;;;8.85;5.88;;;;;;;;;;4844032;29;20074;-71
2021/08/18 06:07:23;;;;;;;8.57;5.70;;;;;;;;;;4843519;29;20085;-71
2021/08/18 06:09:50;;;;;;;9.95;5.28;;;;;;;;;;4843951;29;20057;-71
2021/08/18 06:12:16;;;;;;;9.45;5.45;;;;;;;;;;4843832;29;20098;-71
2021/08/18 06:14:43;;;;;;;10.88;5.72;;;;;;;;;;4830187;29;20058;-73
2021/08/18 06:17:10;;;;;;;8.43;5.68;;;;;;;;;;4809248;29;20085;-72
2021/08/18 06:19:36;;;;;;;7.78;5.35;;;;;;;;;;4825317;29;20078;-72
2021/08/18 06:22:04;;;;;;;10.35;5.80;;;;;;;;;;4825132;29;20058;-72
2021/08/18 06:24:40;;;;;;;10.63;5.38;;;;;;;;;;4824993;29;20054;-71
2021/08/18 06:27:11;;;;;;;11.82;6.82;;;;;;;;;;4824718;29;20058;-73
2021/08/18 06:29:38;;;;;;;14.23;7.68;;;;;;;;;;4824886;29;20122;-71
2021/08/18 06:32:08;;;;;;;12.98;6.78;;;;;;;;;;4825078;29;20051;-74
2021/08/18 06:34:44;;;;;;;8.45;5.18;;;;;;;;;;4823006;29;20093;-73
2021/08/18 06:37:10;;;;;;;6.95;4.40;;;;;;;;;;4824760;29;20058;-72
2021/08/18 06:39:38;;;;;;;5.32;3.38;;;;;;;;;;4824811;29;20094;-72
2021/08/18 06:42:05;;;;;;;6.97;3.80;;;;;;;;;;4824828;29;20092;-72
2021/08/18 06:44:31;;;;;;;5.55;2.88;;;;;;;;;;4824760;29;20058;-71
2021/08/18 06:46:58;;;;;;;3.83;2.67;;;;;;;;;;4824855;29;20093;-71
2021/08/18 06:49:24;;;;;;;3.83;2.83;;;;;;;;;;4823299;29;20059;-71
2021/08/18 06:51:51;;;;;;;4.93;2.53;;;;;;;;;;4824734;29;20081;-72
2021/08/18 06:54:17;;;;;;;4.57;2.53;;;;;;;;;;4824729;29;20092;-71
2021/08/18 06:56:44;;;;;;;3.30;2.58;;;;;;;;;;4824515;29;20210;-72
2021/08/18 06:59:10;;;;;;;3.92;2.75;;;;;;;;;;4836797;29;20092;-71
2021/08/18 07:01:37;;;;;;;5.07;2.65;;;;;;;;;;4842714;29;20102;-68
2021/08/18 07:04:05;;;;;;;3.20;2.30;;;;;;;;;;4843043;29;20073;-68
2021/08/18 07:06:32;;;;;;;2.88;2.40;;;;;;;;;;4842628;29;20054;-68
2021/08/18 07:08:59;;;;;;;4.18;2.40;;;;;;;;;;4842619;29;20053;-68
2021/08/18 07:11:26;;;;;;;5.45;3.10;;;;;;;;;;4839560;29;20083;-68
2021/08/18 07:14:00;;;;;;;3.42;2.63;;;;;;;;;;4840720;29;20089;-68
2021/08/18 07:16:30;;;;;;;6.10;3.15;;;;;;;;;;4840723;29;20328;-68
2021/08/18 07:18:57;;;;;;;5.25;2.55;;;;;;;;;;4840508;29;20057;-68
2021/08/18 07:21:25;;;;;;;5.82;2.95;;;;;;;;;;4839945;29;20102;-68
2021/08/18 07:23:53;;;;;;;4.63;2.58;;;;;;;;;;4840095;29;20134;-68
2021/08/18 07:26:30;;;;;;;4.25;2.80;;;;;;;;;;4840234;29;20058;-68
2021/08/18 07:28:57;;;;;;;3.50;2.50;;;;;;;;;;4840683;29;20426;-68
2021/08/18 07:31:25;;;;;;;2.92;2.13;;;;;;;;;;4840402;29;20110;-68
2021/08/18 07:33:52;;;;;;;4.53;2.83;;;;;;;;;;4840201;29;20136;-68
2021/08/18 07:36:19;;;;;;;6.63;3.03;;;;;;;;;;4827325;29;20123;-68
2021/08/18 07:38:46;;;;;;;4.55;3.35;;;;;;;;;;4821484;29;20054;-67
2021/08/18 07:41:12;;;;;;;3.35;2.67;;;;;;;;;;4822279;29;20065;-68
2021/08/18 07:43:39;;;;;;;4.25;2.40;;;;;;;;;;4822007;29;20388;-68
2021/08/18 07:46:05;;;;;;;2.78;2.40;;;;;;;;;;4821130;29;20119;-68
2021/08/18 07:48:32;;;;;;;4.18;2.20;;;;;;;;;;4821443;29;20058;-68
2021/08/18 07:50:59;;;;;;;8.15;2.47;;;;;;;;;;4822197;29;20089;-68
2021/08/18 07:53:26;;;;;;;2.83;2.05;;;;;;;;;;4822100;29;20111;-68
2021/08/18 07:55:52;;;;;;;4.30;2.30;;;;;;;;;;4830712;29;20097;-68
2021/08/18 07:58:20;;;;;;;2.88;2.00;;;;;;;;;;4838067;29;20137;-67
2021/08/18 08:00:46;;;;;;;2.30;1.85;;;;;;;;;;4808337;29;20059;-73
2021/08/18 08:03:14;;;;;;;3.92;2.30;;;;;;;;;;4816781;29;20104;-71
2021/08/18 08:05:40;;;;;;;6.95;2.13;;;;;;;;;;4808376;29;20133;-67
2021/08/18 08:08:07;;;;;;;4.40;1.98;;;;;;;;;;4810149;29;20111;-67
2021/08/18 08:10:34;;;;;;;3.40;2.60;;;;;;;;;;4808920;29;20092;-67
2021/08/18 08:13:03;;;;;;;4.15;2.13;;;;;;;;;;4809627;29;20766;-67
2021/08/18 08:15:30;;;;;;;2.22;1.65;;;;;;;;;;4815243;29;20085;-71
2021/08/18 08:17:57;;;;;;;3.65;2.50;;;;;;;;;;4812527;29;20529;-71
2021/08/18 08:20:23;;;;;;;4.85;2.00;;;;;;;;;;4810270;29;20082;-66
2021/08/18 08:22:50;;;;;;;2.25;1.75;;;;;;;;;;4808501;29;20046;-70
2021/08/18 08:25:17;;;;;;;2.30;1.88;;;;;;;;;;4811340;29;20097;-72
2021/08/18 08:27:44;;;;;;;2.33;2.08;;;;;;;;;;4813234;29;20086;-71
2021/08/18 08:30:11;;;;;;;2.83;1.80;;;;;;;;;;4809956;29;20640;-70
2021/08/18 08:32:40;;;;;;;2.15;1.50;;;;;;;;;;4811718;29;20062;-69
2021/08/18 08:35:08;;;;;;;2.50;1.60;;;;;;;;;;4813118;29;20058;-68
2021/08/18 08:37:35;;;;;;;3.95;1.50;;;;;;;;;;4808139;29;20050;-70
2021/08/18 08:40:02;;;;;;;2.75;1.50;;;;;;;;;;4812959;29;20549;-69
2021/08/18 08:42:29;;;;;;;1.83;1.27;;;;;;;;;;4806517;29;20557;-66
2021/08/18 08:44:56;;;;;;;1.52;1.08;;;;;;;;;;4798039;29;20531;-71
2021/08/18 08:47:23;;;;;;;2.55;1.83;;;;;;;;;;4795978;29;20066;-68
2021/08/18 08:49:50;;;;;;;2.13;1.63;;;;;;;;;;4809352;29;20057;-71
2021/08/18 08:52:16;;;;;;;1.80;0.93;;;;;;;;;;4811164;29;20046;-70
2021/08/18 08:54:43;;;;;;;2.17;0.88;;;;;;;;;;4821139;29;20098;-70
2021/08/18 08:57:11;;;;;;;1.35;0.82;;;;;;;;;;4812153;29;20085;-66
2021/08/18 08:59:38;;;;;;;1.95;0.73;;;;;;;;;;4807253;29;20088;-69
2021/08/18 09:02:06;;;;;;;1.02;0.70;;;;;;;;;;4883928;23;20092;-70
2021/08/18 09:04:36;;;;;;;0.75;0.55;;;;;;;;;;4869714;29;20462;-76
2021/08/18 09:07:08;;;;;;;0.38;0.30;;;;;;;;;;4865299;29;20105;-71
2021/08/18 09:09:36;;;;;;;0.20;0.20;;;;;;;;;;4866134;29;20058;-71
2021/08/18 09:12:04;;;;;;;0.30;0.30;;;;;;;;;;4864550;29;20053;-71
2021/08/18 09:14:31;;;;;;;0.40;0.30;;;;;;;;;;4865437;29;20425;-71
2021/08/18 09:16:57;;;;;;;0.98;0.28;;;;;;;;;;4879301;29;20049;-71
2021/08/18 09:19:29;;;;;;;0.40;0.40;;;;;;;;;;4866311;29;20108;-71
2021/08/18 09:22:05;;;;;;;1.60;0.30;;;;;;;;;;4864109;29;20053;-71
2021/08/18 09:24:32;;;;;;;1.08;0.45;;;;;;;;;;4866090;29;20087;-71
2021/08/18 09:27:08;;;;;;;0.38;0.30;;;;;;;;;;4878941;29;20053;-71
2021/08/18 09:29:45;;;;;;;1.25;0.43;;;;;;;;;;4862444;29;20091;-71
2021/08/18 09:32:19;;;;;;;0.40;0.40;;;;;;;;;;4865770;29;20053;-71
2021/08/18 09:35:02;;;;;;;0.35;0.28;;;;;;;;;;4868633;29;20406;-71
2021/08/18 09:37:31;;;;;;;0.32;0.32;;;;;;;;;;4863938;29;20505;-71
2021/08/18 09:39:58;;;;;;;0.80;0.43;;;;;;;;;;4866184;29;20049;-71
2021/08/18 09:42:30;;;;;;;0.40;0.40;;;;;;;;;;4863206;29;20505;-71
2021/08/18 09:45:19;;;;;;;0.77;0.30;;;;;;;;;;4869932;29;20045;-71
2021/08/18 09:48:14;;;;;;;0.30;0.30;;;;;;;;;;4867382;29;20086;-71
2021/08/18 09:51:00;;;;;;;0.75;0.60;;;;;;;;;;4861378;29;20053;-71
2021/08/18 09:53:27;;;;;;;0.60;0.40;;;;;;;;;;4865777;29;20527;-71
2021/08/18 09:55:55;;;;;;;0.60;0.30;;;;;;;;;;4869017;29;20109;-71
2021/08/18 09:58:30;;;;;;;0.47;0.47;;;;;;;;;;4865578;29;20101;-71
2021/08/18 10:00:59;;;;;;;0.80;0.60;;;;;;;;;;4864180;29;20096;-71
2021/08/18 10:03:27;;;;;;;1.67;0.65;;;;;;;;;;4864086;29;20136;-72
2021/08/18 10:05:55;;;;;;;0.88;0.32;;;;;;;;;;4866922;29;20045;-71
2021/08/18 10:08:22;;;;;;;0.40;0.40;;;;;;;;;;4864054;29;20061;-71
2021/08/18 10:10:49;;;;;;;0.75;0.52;;;;;;;;;;4868823;29;20057;-71
2021/08/18 10:13:16;;;;;;;0.95;0.50;;;;;;;;;;4867675;29;20065;-71
2021/08/18 10:15:43;;;;;;;1.00;0.70;;;;;;;;;;4870066;29;20092;-73
2021/08/18 10:18:10;;;;;;;1.05;0.63;;;;;;;;;;4869426;29;20125;-71
2021/08/18 10:20:37;;;;;;;0.80;0.80;;;;;;;;;;4870244;29;20052;-72
2021/08/18 10:23:06;;;;;;;0.77;0.77;;;;;;;;;;4885794;29;20076;-71
2021/08/18 10:25:35;;;;;;;0.70;0.70;;;;;;;;;;4868445;29;20480;-72
2021/08/18 10:28:04;;;;;;;0.85;0.77;;;;;;;;;;4869837;29;20105;-74
2021/08/18 10:30:31;;;;;;;0.65;0.65;;;;;;;;;;4866210;29;20049;-70
2021/08/18 10:32:58;;;;;;;0.65;0.65;;;;;;;;;;4869023;29;20045;-73
2021/08/18 10:35:36;;;;;;;0.65;0.65;;;;;;;;;;4866328;29;20092;-68
2021/08/18 10:38:26;;;;;;;0.93;0.80;;;;;;;;;;4870047;29;20091;-74
2021/08/18 10:40:54;;;;;;;1.08;0.98;;;;;;;;;;4869891;29;20504;-72
2021/08/18 10:43:56;;;;;;;1.92;0.70;;;;;;;;;;4881410;29;20473;-71
2021/08/18 10:46:23;;;;;;;1.17;0.80;;;;;;;;;;4867874;29;20053;-70
2021/08/18 10:48:53;;;;;;;1.10;1.00;;;;;;;;;;4867443;29;20136;-69
2021/08/18 10:51:38;;;;;;;1.20;0.73;;;;;;;;;;4868209;29;20078;-68
2021/08/18 10:54:29;;;;;;;0.75;0.70;;;;;;;;;;4868438;29;20495;-68
2021/08/18 10:56:59;;;;;;;1.05;0.95;;;;;;;;;;4869341;29;20490;-71
2021/08/18 10:59:35;;;;;;;0.82;0.75;;;;;;;;;;4869293;29;20053;-71
2021/08/18 11:02:08;;;;;;;1.30;0.88;;;;;;;;;;4868101;29;20081;-73
2021/08/18 11:04:45;;;;;;;1.13;0.90;;;;;;;;;;4866590;29;20084;-72
2021/08/18 11:07:12;;;;;;;1.02;0.93;;;;;;;;;;4873867;29;20149;-71
2021/08/18 11:09:54;;;;;;;1.02;0.93;;;;;;;;;;4868244;29;20121;-72
2021/08/18 11:12:55;;;;;;;1.17;1.08;;;;;;;;;;4868102;29;20529;-71
2021/08/18 11:15:26;;;;;;;2.80;1.50;;;;;;;;;;4867048;29;20113;-71
2021/08/18 11:17:54;;;;;;;1.10;1.00;;;;;;;;;;4866486;29;20505;-71
2021/08/18 11:25:45;;;;;;;1.00;1.00;;;;;;;;;;4115309;27;20049;-71
2021/08/18 11:28:22;;;;;;;1.25;1.15;;;;;;;;;;4886676;29;20508;-70
2021/08/18 11:31:02;;;;;;;0.88;0.88;;;;;;;;;;4891261;29;20091;-70
2021/08/18 11:33:30;;;;;;;0.90;0.90;;;;;;;;;;4902658;29;20128;-70
2021/08/18 11:35:57;;;;;;;0.95;0.80;;;;;;;;;;4904403;29;20535;-71
2021/08/18 11:38:23;;;;;;;1.27;0.93;;;;;;;;;;4902461;29;20506;-70
2021/08/18 11:40:51;;;;;;;1.80;1.20;;;;;;;;;;4925213;29;20123;-72
2021/08/18 11:43:38;;;;;;;1.17;0.88;;;;;;;;;;4901971;29;20052;-72
2021/08/18 11:46:04;;;;;;;0.90;0.80;;;;;;;;;;4905637;29;20053;-70
2021/08/18 11:48:32;;;;;;;1.88;1.42;;;;;;;;;;4904048;29;20059;-69
2021/08/18 11:50:58;;;;;;;0.77;0.63;;;;;;;;;;4902461;29;20107;-69
2021/08/18 11:53:25;;;;;;;1.52;1.10;;;;;;;;;;4903525;29;20044;-70
2021/08/18 11:56:03;;;;;;;1.38;1.00;;;;;;;;;;4905836;29;20060;-70
2021/08/18 11:58:36;;;;;;;0.90;0.80;;;;;;;;;;4905761;29;20063;-72
2021/08/18 12:01:05;;;;;;;1.20;1.10;;;;;;;;;;4905590;29;20148;-73
2021/08/18 12:03:33;;;;;;;1.10;1.00;;;;;;;;;;4903922;29;20048;-71
2021/08/18 12:06:01;;;;;;;1.60;0.88;;;;;;;;;;4918511;29;20052;-72
2021/08/18 12:08:39;;;;;;;0.65;0.65;;;;;;;;;;4902242;29;20124;-70
2021/08/18 12:11:07;;;;;;;0.93;0.90;;;;;;;;;;4905106;29;20108;-68
2021/08/18 12:13:47;;;;;;;0.88;0.75;;;;;;;;;;4901926;29;20076;-69
2021/08/18 12:16:30;;;;;;;0.90;0.82;;;;;;;;;;4906185;29;20103;-68
2021/08/18 12:19:36;;;;;;;0.60;0.60;;;;;;;;;;4901723;29;20139;-68
2021/08/18 12:22:12;;;;;;;0.88;0.70;;;;;;;;;;4866570;29;20118;-69
2021/08/18 12:24:40;;;;;;;0.50;0.50;;;;;;;;;;4865935;29;20088;-68
2021/08/18 12:27:08;;;;;;;0.70;0.68;;;;;;;;;;4886740;29;20049;-68
2021/08/18 12:29:36;;;;;;;0.73;0.70;;;;;;;;;;4903726;29;20053;-68
2021/08/18 12:32:07;;;;;;;2.03;0.88;;;;;;;;;;4903004;29;20301;-67
2021/08/18 12:34:39;;;;;;;2.00;0.77;;;;;;;;;;4901303;29;20067;-68
2021/08/18 12:37:06;;;;;;;1.95;1.00;;;;;;;;;;4907114;29;20073;-67
2021/08/18 12:39:55;;;;;;;1.27;0.68;;;;;;;;;;4903250;29;20056;-68
2021/08/18 12:42:52;;;;;;;0.80;0.80;;;;;;;;;;4905182;29;20567;-68
2021/08/18 12:45:26;;;;;;;0.80;0.70;;;;;;;;;;4901413;29;20056;-67
2021/08/18 12:47:53;;;;;;;1.25;1.00;;;;;;;;;;4899672;29;20083;-67
2021/08/18 12:50:30;;;;;;;1.52;0.47;;;;;;;;;;4902727;29;20076;-67
2021/08/18 12:52:57;;;;;;;0.65;0.50;;;;;;;;;;4902514;29;20526;-68
2021/08/18 12:55:24;;;;;;;0.75;0.50;;;;;;;;;;4908548;29;20044;-66
2021/08/18 12:57:51;;;;;;;1.15;0.65;;;;;;;;;;4901593;29;20103;-69
2021/08/18 13:00:17;;;;;;;1.20;0.57;;;;;;;;;;4904392;29;20079;-71
2021/08/18 13:02:44;;;;;;;1.92;0.95;;;;;;;;;;4902094;29;20059;-70
2021/08/18 13:05:11;;;;;;;1.20;0.70;;;;;;;;;;4901976;29;20060;-70
2021/08/18 13:07:38;;;;;;;0.65;0.57;;;;;;;;;;4902274;29;20467;-68
2021/08/18 13:10:06;;;;;;;1.45;0.50;;;;;;;;;;4901714;29;20507;-69
2021/08/18 13:12:33;;;;;;;0.50;0.50;;;;;;;;;;4904203;29;20135;-69
2021/08/18 13:15:00;;;;;;;0.85;0.60;;;;;;;;;;4902025;29;20055;-67
2021/08/18 13:17:27;;;;;;;0.70;0.70;;;;;;;;;;4904102;29;20146;-68
2021/08/18 13:19:54;;;;;;;0.88;0.70;;;;;;;;;;4906490;29;20048;-69
2021/08/18 13:22:21;;;;;;;0.90;0.77;;;;;;;;;;4905514;29;20072;-68
2021/08/18 13:24:47;;;;;;;1.20;0.98;;;;;;;;;;4903290;29;20139;-68
2021/08/18 13:27:14;;;;;;;3.03;0.90;;;;;;;;;;4902628;29;20075;-68
2021/08/18 13:29:40;;;;;;;1.00;0.90;;;;;;;;;;4900127;29;20605;-68
2021/08/18 13:32:07;;;;;;;1.40;0.90;;;;;;;;;;4903892;29;20084;-68
2021/08/18 13:34:34;;;;;;;0.95;0.70;;;;;;;;;;4915362;29;20144;-68
2021/08/18 13:37:01;;;;;;;1.10;0.77;;;;;;;;;;4902560;29;20044;-67
2021/08/18 13:39:27;;;;;;;0.90;0.60;;;;;;;;;;4900521;29;20090;-68
2021/08/18 13:41:54;;;;;;;1.35;0.70;;;;;;;;;;4901923;29;20079;-68
2021/08/18 13:44:21;;;;;;;0.50;0.50;;;;;;;;;;4905374;29;20120;-67
2021/08/18 13:46:48;;;;;;;0.75;0.70;;;;;;;;;;4905188;29;20087;-68
2021/08/18 13:49:14;;;;;;;0.63;0.60;;;;;;;;;;4920373;29;20071;-68
2021/08/18 13:51:42;;;;;;;1.75;0.70;;;;;;;;;;4904931;29;20345;-68
2021/08/18 13:54:08;;;;;;;2.75;1.00;;;;;;;;;;4908667;29;20048;-68
2021/08/18 13:56:36;;;;;;;1.00;0.73;;;;;;;;;;4904086;29;20084;-68
2021/08/18 13:59:05;;;;;;;1.95;1.20;;;;;;;;;;4908216;29;20087;-68
2021/08/18 14:01:32;;;;;;;0.52;0.52;;;;;;;;;;4904430;29;20508;-68
2021/08/18 14:03:59;;;;;;;0.57;0.57;;;;;;;;;;4906180;29;20058;-68
2021/08/18 14:06:27;;;;;;;0.80;0.70;;;;;;;;;;4904597;29;20079;-68
2021/08/18 14:08:53;;;;;;;0.85;0.60;;;;;;;;;;4907672;29;20072;-67
2021/08/18 14:11:20;;;;;;;0.73;0.73;;;;;;;;;;4905285;29;20056;-69
2021/08/18 14:13:47;;;;;;;0.90;0.60;;;;;;;;;;4908869;29;20103;-73
2021/08/18 14:16:13;;;;;;;1.20;0.68;;;;;;;;;;4908030;29;20119;-74
2021/08/18 14:18:40;;;;;;;1.30;1.20;;;;;;;;;;4908401;29;20079;-71
2021/08/18 14:21:07;;;;;;;1.52;0.80;;;;;;;;;;4904057;29;20051;-70
2021/08/18 14:23:35;;;;;;;0.75;0.70;;;;;;;;;;4907234;29;20719;-72
2021/08/18 14:26:05;;;;;;;1.77;0.80;;;;;;;;;;4907851;29;20100;-72
2021/08/18 14:28:33;;;;;;;1.23;1.00;;;;;;;;;;4906451;29;20059;-70
2021/08/18 14:31:00;;;;;;;1.77;0.73;;;;;;;;;;4906472;29;20052;-70
2021/08/18 14:33:27;;;;;;;1.10;0.90;;;;;;;;;;4905176;29;20491;-71
2021/08/18 14:35:54;;;;;;;2.05;0.88;;;;;;;;;;4905529;29;20076;-72
2021/08/18 14:38:22;;;;;;;1.90;0.90;;;;;;;;;;4904846;29;20059;-71
2021/08/18 14:40:58;;;;;;;1.00;0.77;;;;;;;;;;4953999;23;20047;-72
2021/08/18 14:43:24;;;;;;;0.95;0.80;;;;;;;;;;4916166;29;20079;-73
2021/08/18 14:45:51;;;;;;;1.23;0.80;;;;;;;;;;4919004;29;20135;-73
2021/08/18 14:48:18;;;;;;;1.65;1.02;;;;;;;;;;4916379;29;20090;-69
2021/08/18 14:50:46;;;;;;;2.45;0.98;;;;;;;;;;4912818;29;20171;-69